createdAt,value
2023-03-27T00:03:13.259Z,5.88
2023-03-27T00:10:32.043Z,5.20
2023-03-27T00:17:53.158Z,4.97
2023-03-27T00:25:12.270Z,4.95
2023-03-27T00:32:31.710Z,5.57
2023-03-27T00:39:51.203Z,5.07
2023-03-27T00:47:10.602Z,5.55
2023-03-27T00:54:30.308Z,5.43
2023-03-27T01:01:50.085Z,6.45
2023-03-27T01:09:09.431Z,5.57
2023-03-27T01:16:30.333Z,6.05
2023-03-27T01:24:06.605Z,6.18
2023-03-27T01:31:31.979Z,5.93
2023-03-27T01:39:05.523Z,5.60
2023-03-27T01:46:28.126Z,5.10
2023-03-27T01:53:48.219Z,6.10
2023-03-27T02:01:07.348Z,6.43
2023-03-27T02:08:29.958Z,7.22
2023-03-27T02:15:59.911Z,9.48
2023-03-27T02:23:18.044Z,12.63
2023-03-27T02:30:41.865Z,15.90
2023-03-27T02:38:08.468Z,16.52
2023-03-27T02:45:28.075Z,15.27
2023-03-27T02:52:51.426Z,14.02
2023-03-27T03:00:18.657Z,16.58
2023-03-27T03:07:40.315Z,17.92
2023-03-27T03:15:00.484Z,17.17
2023-03-27T03:22:18.818Z,14.82
2023-03-27T03:29:37.877Z,16.83
2023-03-27T03:37:12.148Z,12.00
2023-03-27T03:44:31.878Z,8.95
2023-03-27T03:52:04.147Z,6.90
2023-03-27T03:59:25.699Z,4.15
2023-03-27T04:07:03.267Z,5.10
2023-03-27T04:14:27.323Z,4.15
2023-03-27T04:21:48.609Z,4.90
2023-03-27T04:29:10.479Z,2.97
2023-03-27T04:36:48.798Z,3.42
2023-03-27T04:44:13.341Z,3.13
2023-03-27T04:51:33.527Z,4.38
2023-03-27T04:58:53.570Z,4.18
2023-03-27T05:06:12.646Z,4.28
2023-03-27T05:13:31.682Z,4.90
2023-03-27T05:20:51.505Z,3.97
2023-03-27T05:28:09.818Z,4.20
2023-03-27T05:35:28.721Z,4.35
2023-03-27T05:42:51.349Z,4.18
2023-03-27T05:50:10.250Z,3.03
2023-03-27T05:57:28.600Z,2.60
2023-03-27T06:04:52.374Z,3.70
2023-03-27T06:12:19.976Z,3.05
2023-03-27T06:19:41.111Z,4.07
2023-03-27T06:27:00.626Z,3.40
2023-03-27T06:41:47.730Z,4.05
2023-03-27T06:49:30.247Z,4.43
2023-03-27T06:56:49.501Z,5.57
2023-03-27T07:04:11.631Z,6.20
2023-03-27T07:11:43.296Z,5.68
2023-03-27T07:19:02.358Z,6.70
2023-03-27T07:26:23.413Z,7.10
2023-03-27T07:33:49.615Z,5.45
2023-03-27T07:41:09.987Z,4.05
2023-03-27T07:48:52.533Z,4.30
2023-03-27T07:56:14.124Z,2.83
2023-03-27T08:03:35.075Z,2.60
2023-03-27T08:10:57.175Z,2.50
2023-03-27T08:18:17.798Z,3.40
2023-03-27T08:25:36.544Z,2.22
2023-03-27T08:33:02.552Z,2.40
2023-03-27T08:40:26.263Z,3.53
2023-03-27T08:48:02.962Z,3.00
2023-03-27T08:55:26.210Z,2.50
2023-03-27T09:03:00.405Z,2.05
2023-03-27T09:10:25.948Z,2.03
2023-03-27T09:17:50.539Z,3.65
2023-03-27T09:25:19.202Z,3.15
2023-03-27T09:33:04.973Z,3.67
2023-03-27T09:40:30.327Z,6.63
2023-03-27T09:47:58.159Z,2.80
2023-03-27T09:55:30.944Z,3.05
2023-03-27T10:03:00.269Z,5.82
2023-03-27T10:10:20.054Z,2.50
2023-03-27T10:17:57.864Z,4.55
2023-03-27T10:25:18.618Z,3.38
2023-03-27T10:32:46.187Z,4.75
2023-03-27T10:40:34.291Z,2.90
2023-03-27T10:48:00.555Z,2.60
2023-03-27T10:55:24.262Z,2.90
2023-03-27T11:02:47.784Z,2.40
2023-03-27T11:10:12.093Z,3.35
2023-03-27T11:17:33.655Z,3.28
2023-03-27T11:25:19.882Z,2.10
2023-03-27T11:32:42.263Z,2.40
2023-03-27T11:40:05.176Z,1.88
2023-03-27T11:47:34.602Z,3.40
2023-03-27T11:55:07.114Z,2.58
2023-03-27T12:02:40.766Z,2.22
2023-03-27T12:10:14.248Z,2.15
2023-03-27T12:17:56.048Z,4.15
2023-03-27T12:25:24.641Z,2.75
2023-03-27T12:33:07.638Z,2.67
2023-03-27T12:40:28.219Z,2.50
2023-03-27T12:48:04.928Z,1.70
2023-03-27T12:55:34.587Z,2.00
2023-03-27T13:03:10.482Z,2.80
2023-03-27T13:10:39.963Z,1.70
2023-03-27T13:18:16.288Z,2.25
2023-03-27T13:25:45.992Z,1.92
2023-03-27T13:33:16.388Z,1.50
2023-03-27T13:40:36.797Z,2.03
2023-03-27T13:48:17.621Z,1.55
2023-03-27T13:55:49.793Z,1.83
2023-03-27T14:03:58.028Z,1.63
2023-03-27T14:11:31.874Z,2.03
2023-03-27T14:19:02.231Z,1.65
2023-03-27T14:26:21.455Z,1.60
2023-03-27T14:33:49.462Z,1.85
2023-03-27T14:41:08.744Z,1.73
2023-03-27T14:48:38.321Z,1.60
2023-03-27T14:56:10.936Z,3.92
2023-03-27T15:03:53.060Z,3.10
2023-03-27T15:11:16.515Z,3.55
2023-03-27T15:19:05.799Z,1.50
2023-03-27T15:26:27.226Z,1.50
2023-03-27T15:33:49.034Z,1.10
2023-03-27T15:41:22.305Z,1.83
2023-03-27T15:48:44.451Z,1.77
2023-03-27T15:56:03.450Z,1.58
2023-03-27T16:03:22.850Z,1.70
2023-03-27T16:10:48.677Z,2.95
2023-03-27T16:18:16.083Z,2.20
2023-03-27T16:25:34.335Z,2.78
2023-03-27T16:32:53.801Z,4.28
2023-03-27T16:40:12.688Z,2.28
2023-03-27T16:47:30.815Z,3.50
2023-03-27T16:54:50.439Z,2.40
2023-03-27T17:02:08.912Z,2.50
2023-03-27T17:09:27.771Z,1.98
2023-03-27T17:16:48.920Z,2.78
2023-03-27T17:24:07.186Z,2.88
2023-03-27T17:31:25.235Z,3.42
2023-03-27T17:38:44.656Z,3.17
2023-03-27T17:46:02.857Z,4.70
2023-03-27T17:53:21.298Z,5.57
2023-03-27T18:00:41.580Z,7.13
2023-03-27T18:07:59.762Z,11.98
2023-03-27T18:15:17.802Z,12.63
2023-03-27T18:22:37.603Z,15.40
2023-03-27T18:29:55.861Z,12.10
2023-03-27T18:37:14.177Z,10.23
2023-03-27T18:44:33.529Z,17.92
2023-03-27T18:51:51.507Z,27.35
2023-03-27T18:59:11.209Z,27.38
2023-03-27T19:06:31.455Z,38.10
2023-03-27T19:13:49.515Z,28.00
2023-03-27T19:21:07.457Z,31.77
2023-03-27T19:28:35.007Z,30.95
2023-03-27T19:35:54.088Z,25.20
2023-03-27T19:43:12.164Z,23.35
2023-03-27T19:50:31.618Z,20.00
2023-03-27T19:58:03.196Z,16.23
2023-03-27T20:05:22.244Z,15.40
2023-03-27T20:12:42.009Z,12.93
2023-03-27T20:20:00.986Z,13.00
2023-03-27T20:27:20.338Z,23.88
2023-03-27T20:34:40.011Z,9.73
2023-03-27T20:42:00.545Z,8.30
2023-03-27T20:56:47.515Z,11.82
2023-03-27T21:04:09.131Z,6.15
2023-03-27T21:11:27.135Z,5.70
2023-03-27T21:18:46.635Z,6.60
2023-03-27T21:26:04.655Z,5.13
2023-03-27T21:33:22.795Z,8.80
2023-03-27T21:40:42.295Z,8.55
2023-03-27T21:48:00.307Z,7.28
2023-03-27T21:55:18.440Z,5.03
2023-03-27T22:02:37.814Z,4.93
2023-03-27T22:09:55.707Z,4.70
2023-03-27T22:17:13.775Z,4.72
2023-03-27T22:24:33.173Z,4.90
2023-03-27T22:31:51.171Z,5.40
2023-03-27T22:39:09.088Z,5.10
2023-03-27T22:46:30.021Z,5.55
2023-03-27T22:53:48.267Z,5.55
2023-03-27T23:01:06.687Z,4.82
2023-03-27T23:08:27.449Z,4.47
2023-03-27T23:15:45.592Z,4.50
2023-03-27T23:23:03.517Z,3.97
2023-03-27T23:30:22.912Z,3.58
2023-03-27T23:37:41.053Z,3.60
2023-03-27T23:44:59.000Z,3.13
2023-03-27T23:52:18.355Z,2.80
2023-03-27T23:59:37.926Z,2.88
